sensor_id;sensor_type;location;lat;lon;timestamp;P1;durP1;ratioP1;P2;durP2;ratioP2
18320;SDS011;54904;54.350;18.664;2022-10-31T00:01:18;12.87;;;8.77;;
18320;SDS011;54904;54.350;18.664;2022-10-31T00:03:48;12.47;;;8.37;;
18320;SDS011;54904;54.350;18.664;2022-10-31T00:06:16;13.50;;;8.57;;
18320;SDS011;54904;54.350;18.664;2022-10-31T00:08:44;10.67;;;8.10;;
18320;SDS011;54904;54.350;18.664;2022-10-31T00:11:11;14.60;;;9.10;;
18320;SDS011;54904;54.350;18.664;2022-10-31T00:13:38;16.03;;;9.40;;
18320;SDS011;54904;54.350;18.664;2022-10-31T00:16:12;15.20;;;9.00;;
18320;SDS011;54904;54.350;18.664;2022-10-31T00:18:40;17.13;;;10.50;;
18320;SDS011;54904;54.350;18.664;2022-10-31T00:21:09;13.17;;;8.43;;
18320;SDS011;54904;54.350;18.664;2022-10-31T00:23:36;14.70;;;8.30;;
18320;SDS011;54904;54.350;18.664;2022-10-31T00:26:03;15.17;;;7.97;;
18320;SDS011;54904;54.350;18.664;2022-10-31T00:28:32;14.10;;;8.43;;
18320;SDS011;54904;54.350;18.664;2022-10-31T00:30:59;14.77;;;8.97;;
18320;SDS011;54904;54.350;18.664;2022-10-31T00:33:27;8.97;;;6.63;;
18320;SDS011;54904;54.350;18.664;2022-10-31T00:35:55;10.27;;;7.30;;
18320;SDS011;54904;54.350;18.664;2022-10-31T00:38:23;12.93;;;8.13;;
18320;SDS011;54904;54.350;18.664;2022-10-31T00:40:51;11.50;;;7.33;;
18320;SDS011;54904;54.350;18.664;2022-10-31T00:43:18;8.83;;;6.80;;
18320;SDS011;54904;54.350;18.664;2022-10-31T00:45:45;16.00;;;9.17;;
18320;SDS011;54904;54.350;18.664;2022-10-31T00:48:13;14.80;;;8.70;;
18320;SDS011;54904;54.350;18.664;2022-10-31T00:50:40;15.10;;;8.87;;
18320;SDS011;54904;54.350;18.664;2022-10-31T00:53:07;17.53;;;9.40;;
18320;SDS011;54904;54.350;18.664;2022-10-31T00:55:36;14.87;;;9.10;;
18320;SDS011;54904;54.350;18.664;2022-10-31T00:58:04;12.40;;;8.07;;
18320;SDS011;54904;54.350;18.664;2022-10-31T01:00:31;17.40;;;8.33;;
18320;SDS011;54904;54.350;18.664;2022-10-31T01:02:59;9.37;;;6.07;;
18320;SDS011;54904;54.350;18.664;2022-10-31T01:05:26;11.77;;;7.57;;
18320;SDS011;54904;54.350;18.664;2022-10-31T01:07:53;11.73;;;7.40;;
18320;SDS011;54904;54.350;18.664;2022-10-31T01:10:25;13.33;;;7.73;;
18320;SDS011;54904;54.350;18.664;2022-10-31T01:12:54;10.27;;;6.47;;
18320;SDS011;54904;54.350;18.664;2022-10-31T01:15:21;11.70;;;7.60;;
18320;SDS011;54904;54.350;18.664;2022-10-31T01:17:49;15.57;;;9.33;;
18320;SDS011;54904;54.350;18.664;2022-10-31T01:20:17;15.73;;;9.03;;
18320;SDS011;54904;54.350;18.664;2022-10-31T01:22:44;10.50;;;7.50;;
18320;SDS011;54904;54.350;18.664;2022-10-31T01:25:11;12.27;;;7.93;;
18320;SDS011;54904;54.350;18.664;2022-10-31T01:27:39;19.90;;;9.43;;
18320;SDS011;54904;54.350;18.664;2022-10-31T01:30:08;32.73;;;15.60;;
18320;SDS011;54904;54.350;18.664;2022-10-31T01:32:36;38.23;;;17.60;;
18320;SDS011;54904;54.350;18.664;2022-10-31T01:35:03;42.27;;;17.90;;
18320;SDS011;54904;54.350;18.664;2022-10-31T01:37:31;44.70;;;19.50;;
18320;SDS011;54904;54.350;18.664;2022-10-31T01:39:58;40.43;;;18.10;;
18320;SDS011;54904;54.350;18.664;2022-10-31T01:42:25;31.47;;;15.97;;
18320;SDS011;54904;54.350;18.664;2022-10-31T01:44:54;27.53;;;13.73;;
18320;SDS011;54904;54.350;18.664;2022-10-31T01:47:37;22.37;;;10.97;;
18320;SDS011;54904;54.350;18.664;2022-10-31T01:50:10;18.87;;;11.47;;
18320;SDS011;54904;54.350;18.664;2022-10-31T01:52:45;19.33;;;11.27;;
18320;SDS011;54904;54.350;18.664;2022-10-31T01:55:16;19.17;;;11.07;;
18320;SDS011;54904;54.350;18.664;2022-10-31T01:57:47;20.30;;;11.07;;
18320;SDS011;54904;54.350;18.664;2022-10-31T02:00:17;16.80;;;9.43;;
18320;SDS011;54904;54.350;18.664;2022-10-31T02:02:47;11.93;;;7.43;;
18320;SDS011;54904;54.350;18.664;2022-10-31T02:05:17;12.83;;;8.17;;
18320;SDS011;54904;54.350;18.664;2022-10-31T02:07:48;20.47;;;12.10;;
18320;SDS011;54904;54.350;18.664;2022-10-31T02:10:26;17.90;;;11.13;;
18320;SDS011;54904;54.350;18.664;2022-10-31T02:12:56;15.20;;;9.20;;
18320;SDS011;54904;54.350;18.664;2022-10-31T02:15:27;11.70;;;7.77;;
18320;SDS011;54904;54.350;18.664;2022-10-31T02:17:57;14.27;;;9.30;;
18320;SDS011;54904;54.350;18.664;2022-10-31T02:20:27;12.13;;;8.10;;
18320;SDS011;54904;54.350;18.664;2022-10-31T02:23:07;10.83;;;7.10;;
18320;SDS011;54904;54.350;18.664;2022-10-31T02:26:02;11.07;;;7.20;;
18320;SDS011;54904;54.350;18.664;2022-10-31T02:28:45;14.47;;;9.20;;
18320;SDS011;54904;54.350;18.664;2022-10-31T02:31:35;13.90;;;8.47;;
18320;SDS011;54904;54.350;18.664;2022-10-31T02:34:10;11.37;;;7.20;;
18320;SDS011;54904;54.350;18.664;2022-10-31T02:36:48;8.90;;;6.23;;
18320;SDS011;54904;54.350;18.664;2022-10-31T02:39:23;7.83;;;5.97;;
18320;SDS011;54904;54.350;18.664;2022-10-31T02:41:59;8.37;;;5.50;;
18320;SDS011;54904;54.350;18.664;2022-10-31T02:44:36;8.27;;;5.67;;
18320;SDS011;54904;54.350;18.664;2022-10-31T02:47:09;7.07;;;5.20;;
18320;SDS011;54904;54.350;18.664;2022-10-31T02:49:42;7.43;;;5.67;;
18320;SDS011;54904;54.350;18.664;2022-10-31T02:52:18;5.97;;;4.30;;
18320;SDS011;54904;54.350;18.664;2022-10-31T02:54:47;7.60;;;4.97;;
18320;SDS011;54904;54.350;18.664;2022-10-31T02:57:16;5.37;;;4.37;;
18320;SDS011;54904;54.350;18.664;2022-10-31T02:59:47;7.30;;;5.40;;
18320;SDS011;54904;54.350;18.664;2022-10-31T03:05:23;5.77;;;4.70;;
18320;SDS011;54904;54.350;18.664;2022-10-31T03:08:00;6.70;;;5.10;;
18320;SDS011;54904;54.350;18.664;2022-10-31T03:10:33;8.37;;;6.40;;
18320;SDS011;54904;54.350;18.664;2022-10-31T03:13:08;6.43;;;5.13;;
18320;SDS011;54904;54.350;18.664;2022-10-31T03:15:43;8.40;;;6.00;;
18320;SDS011;54904;54.350;18.664;2022-10-31T03:18:14;8.80;;;5.97;;
18320;SDS011;54904;54.350;18.664;2022-10-31T03:20:45;6.57;;;4.93;;
18320;SDS011;54904;54.350;18.664;2022-10-31T03:23:17;12.27;;;7.30;;
18320;SDS011;54904;54.350;18.664;2022-10-31T03:25:49;15.33;;;9.47;;
18320;SDS011;54904;54.350;18.664;2022-10-31T03:28:26;12.90;;;7.70;;
18320;SDS011;54904;54.350;18.664;2022-10-31T03:30:57;11.17;;;6.73;;
18320;SDS011;54904;54.350;18.664;2022-10-31T03:33:29;9.60;;;6.67;;
18320;SDS011;54904;54.350;18.664;2022-10-31T03:36:01;13.80;;;7.50;;
18320;SDS011;54904;54.350;18.664;2022-10-31T03:38:30;14.97;;;7.90;;
18320;SDS011;54904;54.350;18.664;2022-10-31T03:41:00;17.07;;;9.53;;
18320;SDS011;54904;54.350;18.664;2022-10-31T03:43:32;15.93;;;8.53;;
18320;SDS011;54904;54.350;18.664;2022-10-31T03:46:04;21.17;;;10.27;;
18320;SDS011;54904;54.350;18.664;2022-10-31T03:48:34;18.53;;;10.00;;
18320;SDS011;54904;54.350;18.664;2022-10-31T03:51:04;14.70;;;8.27;;
18320;SDS011;54904;54.350;18.664;2022-10-31T03:53:37;9.90;;;6.67;;
18320;SDS011;54904;54.350;18.664;2022-10-31T03:56:12;10.13;;;6.30;;
18320;SDS011;54904;54.350;18.664;2022-10-31T03:59:00;10.50;;;6.97;;
18320;SDS011;54904;54.350;18.664;2022-10-31T04:01:33;10.80;;;7.90;;
18320;SDS011;54904;54.350;18.664;2022-10-31T04:04:07;14.00;;;7.93;;
18320;SDS011;54904;54.350;18.664;2022-10-31T04:06:36;12.87;;;7.57;;
18320;SDS011;54904;54.350;18.664;2022-10-31T04:09:07;8.70;;;6.67;;
18320;SDS011;54904;54.350;18.664;2022-10-31T04:11:36;7.07;;;5.67;;
18320;SDS011;54904;54.350;18.664;2022-10-31T04:14:42;8.70;;;6.00;;
18320;SDS011;54904;54.350;18.664;2022-10-31T04:17:12;8.83;;;6.10;;
18320;SDS011;54904;54.350;18.664;2022-10-31T04:19:45;10.53;;;6.63;;
18320;SDS011;54904;54.350;18.664;2022-10-31T04:22:12;12.20;;;7.13;;
18320;SDS011;54904;54.350;18.664;2022-10-31T04:24:40;30.47;;;15.60;;
18320;SDS011;54904;54.350;18.664;2022-10-31T04:27:10;29.97;;;16.33;;
18320;SDS011;54904;54.350;18.664;2022-10-31T04:29:37;21.77;;;12.50;;
18320;SDS011;54904;54.350;18.664;2022-10-31T04:32:07;19.67;;;11.10;;
18320;SDS011;54904;54.350;18.664;2022-10-31T04:34:34;15.80;;;10.10;;
18320;SDS011;54904;54.350;18.664;2022-10-31T04:37:05;13.47;;;9.10;;
18320;SDS011;54904;54.350;18.664;2022-10-31T04:39:33;12.90;;;8.27;;
18320;SDS011;54904;54.350;18.664;2022-10-31T04:42:20;14.33;;;7.87;;
18320;SDS011;54904;54.350;18.664;2022-10-31T04:44:47;11.60;;;7.33;;
18320;SDS011;54904;54.350;18.664;2022-10-31T04:47:15;10.57;;;6.90;;
18320;SDS011;54904;54.350;18.664;2022-10-31T04:49:42;11.43;;;6.70;;
18320;SDS011;54904;54.350;18.664;2022-10-31T04:52:13;10.03;;;6.60;;
18320;SDS011;54904;54.350;18.664;2022-10-31T04:54:41;8.93;;;6.23;;
18320;SDS011;54904;54.350;18.664;2022-10-31T04:57:40;11.03;;;7.13;;
18320;SDS011;54904;54.350;18.664;2022-10-31T05:00:08;7.80;;;6.17;;
18320;SDS011;54904;54.350;18.664;2022-10-31T05:02:42;9.37;;;6.23;;
18320;SDS011;54904;54.350;18.664;2022-10-31T05:05:11;10.03;;;5.80;;
18320;SDS011;54904;54.350;18.664;2022-10-31T05:07:41;12.00;;;7.03;;
18320;SDS011;54904;54.350;18.664;2022-10-31T05:10:09;11.40;;;6.67;;
18320;SDS011;54904;54.350;18.664;2022-10-31T05:12:45;12.47;;;6.87;;
18320;SDS011;54904;54.350;18.664;2022-10-31T05:15:39;17.80;;;10.03;;
18320;SDS011;54904;54.350;18.664;2022-10-31T05:18:25;11.67;;;7.83;;
18320;SDS011;54904;54.350;18.664;2022-10-31T05:21:11;11.43;;;7.60;;
18320;SDS011;54904;54.350;18.664;2022-10-31T05:23:45;10.03;;;6.50;;
18320;SDS011;54904;54.350;18.664;2022-10-31T05:26:14;10.17;;;6.80;;
18320;SDS011;54904;54.350;18.664;2022-10-31T05:28:41;11.33;;;6.63;;
18320;SDS011;54904;54.350;18.664;2022-10-31T05:31:08;12.33;;;7.03;;
18320;SDS011;54904;54.350;18.664;2022-10-31T05:33:35;11.27;;;7.90;;
18320;SDS011;54904;54.350;18.664;2022-10-31T05:36:21;8.83;;;6.50;;
18320;SDS011;54904;54.350;18.664;2022-10-31T05:39:13;15.13;;;9.10;;
18320;SDS011;54904;54.350;18.664;2022-10-31T05:41:47;12.43;;;8.00;;
18320;SDS011;54904;54.350;18.664;2022-10-31T05:44:34;15.60;;;9.10;;
18320;SDS011;54904;54.350;18.664;2022-10-31T05:47:19;20.27;;;10.70;;
18320;SDS011;54904;54.350;18.664;2022-10-31T05:50:05;22.03;;;11.30;;
18320;SDS011;54904;54.350;18.664;2022-10-31T05:52:38;18.57;;;10.20;;
18320;SDS011;54904;54.350;18.664;2022-10-31T05:55:30;22.07;;;11.13;;
18320;SDS011;54904;54.350;18.664;2022-10-31T05:58:03;18.77;;;9.67;;
18320;SDS011;54904;54.350;18.664;2022-10-31T06:00:32;26.87;;;10.77;;
18320;SDS011;54904;54.350;18.664;2022-10-31T06:03:06;17.50;;;9.03;;
18320;SDS011;54904;54.350;18.664;2022-10-31T06:06:05;24.53;;;10.07;;
18320;SDS011;54904;54.350;18.664;2022-10-31T06:08:35;29.90;;;11.67;;
18320;SDS011;54904;54.350;18.664;2022-10-31T06:11:07;30.37;;;13.00;;
18320;SDS011;54904;54.350;18.664;2022-10-31T06:13:53;22.60;;;10.93;;
18320;SDS011;54904;54.350;18.664;2022-10-31T06:16:30;18.77;;;9.33;;
18320;SDS011;54904;54.350;18.664;2022-10-31T06:19:11;32.27;;;13.13;;
18320;SDS011;54904;54.350;18.664;2022-10-31T06:21:39;38.83;;;15.10;;
18320;SDS011;54904;54.350;18.664;2022-10-31T06:24:07;28.77;;;12.70;;
18320;SDS011;54904;54.350;18.664;2022-10-31T06:26:58;25.77;;;10.53;;
18320;SDS011;54904;54.350;18.664;2022-10-31T06:29:26;31.47;;;13.17;;
18320;SDS011;54904;54.350;18.664;2022-10-31T06:32:09;23.57;;;11.13;;
18320;SDS011;54904;54.350;18.664;2022-10-31T06:34:41;24.20;;;11.00;;
18320;SDS011;54904;54.350;18.664;2022-10-31T06:37:09;34.97;;;13.93;;
18320;SDS011;54904;54.350;18.664;2022-10-31T06:39:40;36.03;;;15.00;;
18320;SDS011;54904;54.350;18.664;2022-10-31T06:42:11;37.97;;;15.97;;
18320;SDS011;54904;54.350;18.664;2022-10-31T06:44:38;35.70;;;15.03;;
18320;SDS011;54904;54.350;18.664;2022-10-31T06:47:24;37.00;;;15.73;;
18320;SDS011;54904;54.350;18.664;2022-10-31T06:49:53;28.50;;;14.33;;
18320;SDS011;54904;54.350;18.664;2022-10-31T06:52:22;22.90;;;11.40;;
18320;SDS011;54904;54.350;18.664;2022-10-31T06:54:51;17.10;;;9.10;;
18320;SDS011;54904;54.350;18.664;2022-10-31T06:57:20;29.83;;;13.33;;
18320;SDS011;54904;54.350;18.664;2022-10-31T06:59:48;26.23;;;11.87;;
18320;SDS011;54904;54.350;18.664;2022-10-31T07:02:24;29.93;;;13.27;;
18320;SDS011;54904;54.350;18.664;2022-10-31T07:04:51;35.20;;;15.37;;
18320;SDS011;54904;54.350;18.664;2022-10-31T07:07:19;33.10;;;14.43;;
18320;SDS011;54904;54.350;18.664;2022-10-31T07:09:47;34.50;;;14.87;;
18320;SDS011;54904;54.350;18.664;2022-10-31T07:12:16;37.87;;;15.40;;
18320;SDS011;54904;54.350;18.664;2022-10-31T07:14:54;29.67;;;14.00;;
18320;SDS011;54904;54.350;18.664;2022-10-31T07:17:23;26.90;;;12.93;;
18320;SDS011;54904;54.350;18.664;2022-10-31T07:19:53;18.13;;;9.73;;
18320;SDS011;54904;54.350;18.664;2022-10-31T07:22:21;20.07;;;9.90;;
18320;SDS011;54904;54.350;18.664;2022-10-31T07:24:48;35.27;;;14.43;;
18320;SDS011;54904;54.350;18.664;2022-10-31T07:27:37;54.27;;;24.33;;
18320;SDS011;54904;54.350;18.664;2022-10-31T07:30:11;66.77;;;30.03;;
18320;SDS011;54904;54.350;18.664;2022-10-31T07:32:39;60.63;;;30.20;;
18320;SDS011;54904;54.350;18.664;2022-10-31T07:35:07;62.63;;;29.83;;
18320;SDS011;54904;54.350;18.664;2022-10-31T07:37:45;41.80;;;21.87;;
18320;SDS011;54904;54.350;18.664;2022-10-31T07:40:14;36.73;;;18.50;;
18320;SDS011;54904;54.350;18.664;2022-10-31T07:42:43;54.93;;;25.30;;
18320;SDS011;54904;54.350;18.664;2022-10-31T07:45:33;53.53;;;26.50;;
18320;SDS011;54904;54.350;18.664;2022-10-31T07:48:23;61.40;;;26.20;;
18320;SDS011;54904;54.350;18.664;2022-10-31T07:51:29;41.20;;;20.30;;
18320;SDS011;54904;54.350;18.664;2022-10-31T07:54:24;33.77;;;16.20;;
18320;SDS011;54904;54.350;18.664;2022-10-31T07:56:52;32.33;;;15.17;;
18320;SDS011;54904;54.350;18.664;2022-10-31T07:59:20;31.90;;;15.40;;
18320;SDS011;54904;54.350;18.664;2022-10-31T08:01:48;31.20;;;13.37;;
18320;SDS011;54904;54.350;18.664;2022-10-31T08:04:35;31.73;;;14.50;;
18320;SDS011;54904;54.350;18.664;2022-10-31T08:07:21;26.50;;;13.30;;
18320;SDS011;54904;54.350;18.664;2022-10-31T08:10:03;21.97;;;11.30;;
18320;SDS011;54904;54.350;18.664;2022-10-31T08:12:33;40.27;;;15.90;;
18320;SDS011;54904;54.350;18.664;2022-10-31T08:15:01;34.60;;;17.13;;
18320;SDS011;54904;54.350;18.664;2022-10-31T08:17:35;38.10;;;16.57;;
18320;SDS011;54904;54.350;18.664;2022-10-31T08:20:03;34.20;;;16.10;;
18320;SDS011;54904;54.350;18.664;2022-10-31T08:22:35;33.07;;;16.20;;
18320;SDS011;54904;54.350;18.664;2022-10-31T08:25:02;35.33;;;15.77;;
18320;SDS011;54904;54.350;18.664;2022-10-31T08:27:30;31.47;;;14.27;;
18320;SDS011;54904;54.350;18.664;2022-10-31T08:29:59;31.63;;;14.73;;
18320;SDS011;54904;54.350;18.664;2022-10-31T08:32:26;36.30;;;16.17;;
18320;SDS011;54904;54.350;18.664;2022-10-31T08:34:58;31.83;;;15.43;;
18320;SDS011;54904;54.350;18.664;2022-10-31T08:37:43;23.10;;;13.47;;
18320;SDS011;54904;54.350;18.664;2022-10-31T08:40:10;25.33;;;13.37;;
18320;SDS011;54904;54.350;18.664;2022-10-31T08:42:39;25.00;;;11.90;;
18320;SDS011;54904;54.350;18.664;2022-10-31T08:45:07;32.90;;;14.97;;
18320;SDS011;54904;54.350;18.664;2022-10-31T08:47:35;29.23;;;14.50;;
18320;SDS011;54904;54.350;18.664;2022-10-31T08:50:05;33.50;;;16.10;;
18320;SDS011;54904;54.350;18.664;2022-10-31T08:52:33;23.50;;;12.90;;
18320;SDS011;54904;54.350;18.664;2022-10-31T08:55:02;16.77;;;10.00;;
18320;SDS011;54904;54.350;18.664;2022-10-31T08:58:02;26.03;;;13.60;;
18320;SDS011;54904;54.350;18.664;2022-10-31T09:00:40;23.07;;;13.10;;
18320;SDS011;54904;54.350;18.664;2022-10-31T09:03:16;18.63;;;11.17;;
18320;SDS011;54904;54.350;18.664;2022-10-31T09:05:47;21.33;;;11.80;;
18320;SDS011;54904;54.350;18.664;2022-10-31T09:08:14;26.30;;;14.40;;
18320;SDS011;54904;54.350;18.664;2022-10-31T09:10:45;28.73;;;15.40;;
18320;SDS011;54904;54.350;18.664;2022-10-31T09:13:16;29.33;;;15.67;;
18320;SDS011;54904;54.350;18.664;2022-10-31T09:16:17;28.43;;;14.87;;
18320;SDS011;54904;54.350;18.664;2022-10-31T09:18:44;28.17;;;14.93;;
18320;SDS011;54904;54.350;18.664;2022-10-31T09:21:16;26.00;;;14.87;;
18320;SDS011;54904;54.350;18.664;2022-10-31T09:23:45;20.20;;;11.40;;
18320;SDS011;54904;54.350;18.664;2022-10-31T09:26:13;25.57;;;12.93;;
18320;SDS011;54904;54.350;18.664;2022-10-31T09:29:13;19.97;;;10.97;;
18320;SDS011;54904;54.350;18.664;2022-10-31T09:31:42;20.43;;;10.77;;
18320;SDS011;54904;54.350;18.664;2022-10-31T09:34:29;21.93;;;12.80;;
18320;SDS011;54904;54.350;18.664;2022-10-31T09:37:06;25.37;;;14.03;;
18320;SDS011;54904;54.350;18.664;2022-10-31T09:39:34;26.30;;;13.73;;
18320;SDS011;54904;54.350;18.664;2022-10-31T09:42:16;19.47;;;11.53;;
18320;SDS011;54904;54.350;18.664;2022-10-31T09:44:59;27.13;;;13.70;;
18320;SDS011;54904;54.350;18.664;2022-10-31T09:47:38;24.30;;;12.60;;
18320;SDS011;54904;54.350;18.664;2022-10-31T09:50:34;21.97;;;11.90;;
18320;SDS011;54904;54.350;18.664;2022-10-31T09:53:34;23.50;;;12.43;;
18320;SDS011;54904;54.350;18.664;2022-10-31T09:56:07;29.70;;;14.43;;
18320;SDS011;54904;54.350;18.664;2022-10-31T09:58:40;25.23;;;12.60;;
18320;SDS011;54904;54.350;18.664;2022-10-31T10:01:14;25.93;;;13.33;;
18320;SDS011;54904;54.350;18.664;2022-10-31T10:03:57;29.03;;;13.97;;
18320;SDS011;54904;54.350;18.664;2022-10-31T10:06:56;27.70;;;14.10;;
18320;SDS011;54904;54.350;18.664;2022-10-31T10:09:45;21.83;;;12.60;;
18320;SDS011;54904;54.350;18.664;2022-10-31T10:12:36;15.60;;;9.40;;
18320;SDS011;54904;54.350;18.664;2022-10-31T10:15:19;22.87;;;11.63;;
18320;SDS011;54904;54.350;18.664;2022-10-31T10:18:09;25.40;;;14.00;;
18320;SDS011;54904;54.350;18.664;2022-10-31T10:20:50;27.20;;;13.93;;
18320;SDS011;54904;54.350;18.664;2022-10-31T10:23:41;21.03;;;11.37;;
18320;SDS011;54904;54.350;18.664;2022-10-31T10:26:29;23.63;;;13.43;;
18320;SDS011;54904;54.350;18.664;2022-10-31T10:29:07;20.83;;;11.37;;
18320;SDS011;54904;54.350;18.664;2022-10-31T10:31:45;25.87;;;12.67;;
18320;SDS011;54904;54.350;18.664;2022-10-31T10:34:17;34.53;;;16.33;;
18320;SDS011;54904;54.350;18.664;2022-10-31T10:36:52;33.87;;;16.47;;
18320;SDS011;54904;54.350;18.664;2022-10-31T10:39:25;34.07;;;16.80;;
18320;SDS011;54904;54.350;18.664;2022-10-31T10:41:57;33.57;;;15.90;;
18320;SDS011;54904;54.350;18.664;2022-10-31T10:44:43;31.17;;;14.77;;
18320;SDS011;54904;54.350;18.664;2022-10-31T10:47:34;44.07;;;17.00;;
18320;SDS011;54904;54.350;18.664;2022-10-31T10:50:09;39.37;;;16.77;;
18320;SDS011;54904;54.350;18.664;2022-10-31T10:52:42;36.30;;;17.17;;
18320;SDS011;54904;54.350;18.664;2022-10-31T10:55:16;36.97;;;17.80;;
18320;SDS011;54904;54.350;18.664;2022-10-31T10:57:56;41.57;;;16.40;;
18320;SDS011;54904;54.350;18.664;2022-10-31T11:00:26;27.67;;;13.53;;
18320;SDS011;54904;54.350;18.664;2022-10-31T11:02:59;26.90;;;12.43;;
18320;SDS011;54904;54.350;18.664;2022-10-31T11:05:28;16.33;;;9.77;;
18320;SDS011;54904;54.350;18.664;2022-10-31T11:08:01;21.30;;;8.93;;
18320;SDS011;54904;54.350;18.664;2022-10-31T11:10:28;16.80;;;8.93;;
18320;SDS011;54904;54.350;18.664;2022-10-31T11:13:04;17.03;;;8.57;;
18320;SDS011;54904;54.350;18.664;2022-10-31T11:15:50;17.57;;;8.67;;
18320;SDS011;54904;54.350;18.664;2022-10-31T11:18:24;14.30;;;7.80;;
18320;SDS011;54904;54.350;18.664;2022-10-31T11:20:54;25.23;;;11.20;;
18320;SDS011;54904;54.350;18.664;2022-10-31T11:23:23;32.30;;;14.13;;
18320;SDS011;54904;54.350;18.664;2022-10-31T11:25:54;32.57;;;13.63;;
18320;SDS011;54904;54.350;18.664;2022-10-31T11:28:24;31.70;;;13.43;;
18320;SDS011;54904;54.350;18.664;2022-10-31T11:30:52;20.87;;;10.27;;
18320;SDS011;54904;54.350;18.664;2022-10-31T11:33:23;17.87;;;9.30;;
18320;SDS011;54904;54.350;18.664;2022-10-31T11:35:54;15.33;;;8.23;;
18320;SDS011;54904;54.350;18.664;2022-10-31T11:38:23;15.67;;;7.67;;
18320;SDS011;54904;54.350;18.664;2022-10-31T11:41:01;16.67;;;8.80;;
18320;SDS011;54904;54.350;18.664;2022-10-31T11:43:37;14.07;;;7.37;;
18320;SDS011;54904;54.350;18.664;2022-10-31T11:46:09;27.10;;;11.93;;
18320;SDS011;54904;54.350;18.664;2022-10-31T11:48:37;30.23;;;14.43;;
18320;SDS011;54904;54.350;18.664;2022-10-31T11:51:04;38.70;;;18.40;;
18320;SDS011;54904;54.350;18.664;2022-10-31T11:53:35;41.50;;;17.13;;
18320;SDS011;54904;54.350;18.664;2022-10-31T11:56:03;36.20;;;15.70;;
18320;SDS011;54904;54.350;18.664;2022-10-31T11:58:38;29.57;;;14.70;;
18320;SDS011;54904;54.350;18.664;2022-10-31T12:01:08;26.10;;;12.23;;
18320;SDS011;54904;54.350;18.664;2022-10-31T12:03:53;33.70;;;14.70;;
18320;SDS011;54904;54.350;18.664;2022-10-31T12:06:28;37.23;;;16.37;;
18320;SDS011;54904;54.350;18.664;2022-10-31T12:08:59;30.53;;;14.50;;
18320;SDS011;54904;54.350;18.664;2022-10-31T12:11:37;39.47;;;16.37;;
18320;SDS011;54904;54.350;18.664;2022-10-31T12:14:17;34.07;;;15.87;;
18320;SDS011;54904;54.350;18.664;2022-10-31T12:16:55;32.20;;;15.03;;
18320;SDS011;54904;54.350;18.664;2022-10-31T12:19:32;26.83;;;13.43;;
18320;SDS011;54904;54.350;18.664;2022-10-31T12:22:08;26.33;;;12.30;;
18320;SDS011;54904;54.350;18.664;2022-10-31T12:24:46;31.57;;;13.93;;
18320;SDS011;54904;54.350;18.664;2022-10-31T12:27:27;29.07;;;13.50;;
18320;SDS011;54904;54.350;18.664;2022-10-31T12:30:07;24.77;;;12.10;;
18320;SDS011;54904;54.350;18.664;2022-10-31T12:32:43;18.10;;;10.03;;
18320;SDS011;54904;54.350;18.664;2022-10-31T12:35:24;18.43;;;9.60;;
18320;SDS011;54904;54.350;18.664;2022-10-31T12:38:07;20.60;;;10.57;;
18320;SDS011;54904;54.350;18.664;2022-10-31T12:41:00;22.93;;;11.43;;
18320;SDS011;54904;54.350;18.664;2022-10-31T12:43:50;21.00;;;11.03;;
18320;SDS011;54904;54.350;18.664;2022-10-31T12:46:29;16.27;;;8.53;;
18320;SDS011;54904;54.350;18.664;2022-10-31T12:49:25;10.87;;;6.90;;
18320;SDS011;54904;54.350;18.664;2022-10-31T12:52:05;17.57;;;9.93;;
18320;SDS011;54904;54.350;18.664;2022-10-31T12:54:49;14.97;;;8.97;;
18320;SDS011;54904;54.350;18.664;2022-10-31T12:57:29;11.20;;;7.43;;
18320;SDS011;54904;54.350;18.664;2022-10-31T13:00:02;11.13;;;7.60;;
18320;SDS011;54904;54.350;18.664;2022-10-31T13:02:34;33.70;;;18.73;;
18320;SDS011;54904;54.350;18.664;2022-10-31T13:05:11;19.97;;;12.90;;
18320;SDS011;54904;54.350;18.664;2022-10-31T13:07:44;17.97;;;10.03;;
18320;SDS011;54904;54.350;18.664;2022-10-31T13:10:16;14.07;;;8.83;;
18320;SDS011;54904;54.350;18.664;2022-10-31T13:12:49;11.37;;;7.70;;
18320;SDS011;54904;54.350;18.664;2022-10-31T13:15:20;10.03;;;6.73;;
18320;SDS011;54904;54.350;18.664;2022-10-31T13:17:54;9.40;;;6.50;;
18320;SDS011;54904;54.350;18.664;2022-10-31T13:20:24;9.47;;;5.87;;
18320;SDS011;54904;54.350;18.664;2022-10-31T13:22:56;6.60;;;5.00;;
18320;SDS011;54904;54.350;18.664;2022-10-31T13:25:31;9.03;;;6.83;;
18320;SDS011;54904;54.350;18.664;2022-10-31T13:28:05;8.27;;;6.50;;
18320;SDS011;54904;54.350;18.664;2022-10-31T13:30:50;6.40;;;5.47;;
18320;SDS011;54904;54.350;18.664;2022-10-31T13:33:21;6.80;;;5.87;;
18320;SDS011;54904;54.350;18.664;2022-10-31T13:35:55;7.40;;;5.30;;
18320;SDS011;54904;54.350;18.664;2022-10-31T13:38:32;5.97;;;4.80;;
18320;SDS011;54904;54.350;18.664;2022-10-31T13:41:04;11.47;;;6.80;;
18320;SDS011;54904;54.350;18.664;2022-10-31T13:43:50;7.47;;;5.40;;
18320;SDS011;54904;54.350;18.664;2022-10-31T13:46:26;6.00;;;4.37;;
18320;SDS011;54904;54.350;18.664;2022-10-31T13:49:04;9.23;;;5.23;;
18320;SDS011;54904;54.350;18.664;2022-10-31T13:51:47;8.40;;;5.20;;
18320;SDS011;54904;54.350;18.664;2022-10-31T13:54:21;6.90;;;5.67;;
18320;SDS011;54904;54.350;18.664;2022-10-31T13:56:49;8.10;;;5.40;;
18320;SDS011;54904;54.350;18.664;2022-10-31T13:59:19;4.97;;;4.30;;
18320;SDS011;54904;54.350;18.664;2022-10-31T14:01:50;6.23;;;4.77;;
18320;SDS011;54904;54.350;18.664;2022-10-31T14:04:22;10.53;;;6.93;;
18320;SDS011;54904;54.350;18.664;2022-10-31T14:06:53;6.87;;;5.17;;
18320;SDS011;54904;54.350;18.664;2022-10-31T14:09:26;6.67;;;5.20;;
18320;SDS011;54904;54.350;18.664;2022-10-31T14:11:56;7.27;;;5.30;;
18320;SDS011;54904;54.350;18.664;2022-10-31T14:14:29;8.57;;;5.87;;
18320;SDS011;54904;54.350;18.664;2022-10-31T14:17:16;7.70;;;5.47;;
18320;SDS011;54904;54.350;18.664;2022-10-31T14:19:58;7.40;;;5.67;;
18320;SDS011;54904;54.350;18.664;2022-10-31T14:22:31;7.13;;;5.30;;
18320;SDS011;54904;54.350;18.664;2022-10-31T14:24:59;6.60;;;5.10;;
18320;SDS011;54904;54.350;18.664;2022-10-31T14:27:34;8.30;;;6.27;;
18320;SDS011;54904;54.350;18.664;2022-10-31T14:30:18;6.57;;;5.23;;
18320;SDS011;54904;54.350;18.664;2022-10-31T14:32:51;6.33;;;4.97;;
18320;SDS011;54904;54.350;18.664;2022-10-31T14:35:23;8.83;;;5.50;;
18320;SDS011;54904;54.350;18.664;2022-10-31T14:38:02;7.67;;;5.90;;
18320;SDS011;54904;54.350;18.664;2022-10-31T14:40:58;6.93;;;5.23;;
18320;SDS011;54904;54.350;18.664;2022-10-31T14:43:58;7.17;;;5.43;;
18320;SDS011;54904;54.350;18.664;2022-10-31T14:46:48;7.37;;;5.53;;
18320;SDS011;54904;54.350;18.664;2022-10-31T14:49:27;4.90;;;4.20;;
18320;SDS011;54904;54.350;18.664;2022-10-31T14:52:08;5.33;;;4.50;;
18320;SDS011;54904;54.350;18.664;2022-10-31T14:54:39;4.87;;;4.17;;
18320;SDS011;54904;54.350;18.664;2022-10-31T14:57:14;7.33;;;5.17;;
18320;SDS011;54904;54.350;18.664;2022-10-31T14:59:46;5.83;;;4.57;;
18320;SDS011;54904;54.350;18.664;2022-10-31T15:02:18;6.87;;;5.50;;
18320;SDS011;54904;54.350;18.664;2022-10-31T15:04:50;8.23;;;5.87;;